Skip Navigation Links
NOAA logo - Click to go to the NOAA homepage
NOAA's National Weather Service
Alaska Aviation Weather Unit
  NWS logo - Click to go to the NWS homepage
Left Navbar Graphic     23 AKDT = 07 GMT

   
NOAA is celebrating 200 years of science, service, and stewardship. Visit the NOAA 200th celebration Web site to learn more.
USA.gov is the U.S. Government's official Web portal to all Federal, state and local government Web resources and services.
Facebook
NWS on Facebook

Important Change Regarding the AAWU Web Presence

 

Over the last several months, the AAWU has been working to navigate its webpages to a nationally supported server. Security, as well as other needs, have necessitated the change.  In the process, we have made an effort to enhance the functionality of our website, as well as some of our products. As of June 20, 2017, aawu.arh.noaa.gov will be discontinued. The new AAWU web address is weather.gov/aawu. It is now live and will run in-parallel with the old site until it is discontinued. Please send any feedback or questions regarding the new webpages to nws.ar.aawu.webauthors@noaa.gov.  Thank you for your patience during this time of transition.
AAWU Home :: Display TAF Add Bookmark
SPECI PARS 240111Z AUTO 16008KT 10SM RA BKN029 OVC035 08/04 A2982 RMK
     AO2 RAB04 P0000 $=

SPECI PARS 240145Z AUTO 19008KT 10SM -RA FEW022 SCT034 OVC047 07/05
     A2981 RMK AO2 RAB04 P0003 $=

METAR PARS 240156Z AUTO 18007KT 10SM -RA FEW023 SCT028 OVC045 08/05
     A2981 RMK AO2 RAB04 SLP097 P0003 T00780050 $=

SPECI PARS 240245Z AUTO 17010KT 10SM -RA FEW025 BKN029 OVC047 08/04
     A2979 RMK AO2 P0000 $=

SPECI PARS 240253Z AUTO 17006G14KT 10SM -RA FEW029 BKN037 OVC044 08/03
     A2978 RMK AO2 P0000 $=

METAR PARS 240256Z AUTO 17009G14KT 10SM -RA FEW027 OVC039 08/03 A2978
     RMK AO2 SLP090 P0000 60004 T00780033 56011 $=

SPECI PARS 240342Z AUTO 16005KT 10SM -RA BKN029 OVC042 07/04 A2976 RMK
     AO2 P0001 $=

METAR PARS 240356Z AUTO 16004KT 10SM -RA BKN027 OVC034 07/05 A2975 RMK
     AO2 SLP080 P0001 T00720050 $=

SPECI PARS 240441Z AUTO 16004KT 10SM -RA FEW022 BKN035 OVC042 07/05
     A2973 RMK AO2 P0001 $=

METAR PARS 240456Z AUTO 16004KT 10SM -RA FEW030 BKN037 OVC045 07/05
 A2973 RMK AO2 SLP072 P0001 T00670050 $=

SPECI PARS 240519Z AUTO 18008KT 10SM -RA FEW018 BKN024 OVC042 07/05
     A2972 RMK AO2 P0000 $=

METAR PARS 240556Z AUTO 17004KT 10SM -RA OVC025 06/05 A2971 RMK AO2
 SLP064 P0002 60008 T00610050 10089 20061 56026 $=

SPECI PARS 240717Z AUTO 18007KT 10SM -RA FEW012 BKN021 OVC033 06/04
     A2969 RMK AO2 P0001 $=


NOAA's National Weather Service
Alaska Aviation Weather Unit
6930 Sand Lake Road
Anchorage, AK 99502-1845
Disclaimer
Credits
Glossary
Privacy Policy
About Us
Career Opportunities
Contact AAWU Internet Services Site last modified: April, 17th 2012